Time;durP1;ratioP1;P1;durP2;ratioP2;P2;SDS_P1;SDS_P2;PMS_P1;PMS_P2;Temp;Humidity;BMP_temperature;BMP_pressure;BME280_temperature;BME280_humidity;BME280_pressure;Samples;Min_cycle;Max_cycle;Signal;HPM_P1;HPM_P2
2023/12/11 00:01:34;;;;;;;7.80;3.15;;;;;;;;;;5118369;29;20089;-57
2023/12/11 00:04:05;;;;;;;5.20;3.33;;;;;;;;;;5119174;29;20048;-56
2023/12/11 00:06:36;;;;;;;3.60;2.80;;;;;;;;;;5120493;29;20080;-60
2023/12/11 00:09:07;;;;;;;7.20;3.15;;;;;;;;;;5131290;28;20853;-60
2023/12/11 00:11:38;;;;;;;4.10;3.05;;;;;;;;;;5121772;29;20079;-59
2023/12/11 00:14:10;;;;;;;6.18;2.55;;;;;;;;;;5105775;29;20046;-62
2023/12/11 00:16:41;;;;;;;3.80;2.45;;;;;;;;;;5105474;29;20047;-64
2023/12/11 00:19:12;;;;;;;4.70;2.47;;;;;;;;;;5121421;29;20529;-63
2023/12/11 00:21:43;;;;;;;4.03;2.10;;;;;;;;;;5106286;29;20458;-62
2023/12/11 00:24:15;;;;;;;4.47;2.10;;;;;;;;;;5121845;29;20495;-63
2023/12/11 00:26:46;;;;;;;2.80;1.63;;;;;;;;;;5104772;29;20046;-60
2023/12/11 00:29:18;;;;;;;2.80;1.70;;;;;;;;;;5106107;29;20039;-61
2023/12/11 00:31:49;;;;;;;6.20;2.13;;;;;;;;;;5106168;29;20438;-61
2023/12/11 00:34:20;;;;;;;3.60;2.03;;;;;;;;;;5101350;29;20083;-62
2023/12/11 00:36:51;;;;;;;3.38;1.45;;;;;;;;;;5125897;28;20039;-62
2023/12/11 00:39:22;;;;;;;2.55;1.40;;;;;;;;;;5121600;29;20050;-62
2023/12/11 00:41:53;;;;;;;3.60;1.87;;;;;;;;;;5105799;29;20051;-60
2023/12/11 00:44:25;;;;;;;2.25;1.38;;;;;;;;;;5121120;29;20472;-60
2023/12/11 00:46:56;;;;;;;2.93;1.97;;;;;;;;;;5120931;29;20047;-61
2023/12/11 00:49:27;;;;;;;2.35;1.42;;;;;;;;;;5103225;29;20460;-62
2023/12/11 00:51:58;;;;;;;3.35;1.75;;;;;;;;;;5117510;29;20040;-61
2023/12/11 00:54:29;;;;;;;3.10;1.40;;;;;;;;;;5135627;28;20064;-61
2023/12/11 00:57:00;;;;;;;4.57;1.17;;;;;;;;;;5096100;29;20048;-60
2023/12/11 00:59:31;;;;;;;3.28;1.40;;;;;;;;;;5131722;28;20151;-61
2023/12/11 01:02:03;;;;;;;5.20;1.73;;;;;;;;;;5121903;29;20047;-59
2023/12/11 01:04:34;;;;;;;3.15;1.30;;;;;;;;;;5111431;29;20190;-58
2023/12/11 01:07:05;;;;;;;2.33;1.45;;;;;;;;;;5130227;28;20110;-58
2023/12/11 01:09:36;;;;;;;4.18;2.08;;;;;;;;;;5134231;28;20035;-58
2023/12/11 01:12:07;;;;;;;3.38;1.75;;;;;;;;;;5102189;29;20114;-57
2023/12/11 01:14:38;;;;;;;4.23;2.03;;;;;;;;;;5149854;28;20050;-58
2023/12/11 01:17:09;;;;;;;3.88;1.30;;;;;;;;;;5137971;28;20423;-58
2023/12/11 01:19:41;;;;;;;4.47;1.70;;;;;;;;;;5137049;28;20054;-58
2023/12/11 01:22:12;;;;;;;4.00;1.70;;;;;;;;;;5121612;29;20043;-58
2023/12/11 01:24:43;;;;;;;4.60;1.60;;;;;;;;;;5120919;29;20043;-58
2023/12/11 01:27:14;;;;;;;7.57;2.17;;;;;;;;;;5130359;28;20402;-59
2023/12/11 01:29:45;;;;;;;3.58;1.30;;;;;;;;;;5138611;28;20087;-58
2023/12/11 01:32:16;;;;;;;5.47;1.80;;;;;;;;;;5105700;29;20092;-58
2023/12/11 01:34:48;;;;;;;3.63;1.30;;;;;;;;;;5121573;29;20130;-58
2023/12/11 01:37:19;;;;;;;3.47;1.45;;;;;;;;;;5121791;29;20431;-57
2023/12/11 01:39:50;;;;;;;3.87;2.10;;;;;;;;;;5105016;29;20089;-57
2023/12/11 01:42:21;;;;;;;4.57;2.10;;;;;;;;;;5121390;29;20500;-57
2023/12/11 01:44:52;;;;;;;3.80;2.10;;;;;;;;;;5121251;29;20093;-57
2023/12/11 01:47:23;;;;;;;3.90;2.10;;;;;;;;;;5121573;29;20039;-57
2023/12/11 01:49:55;;;;;;;2.70;1.50;;;;;;;;;;5121920;28;20035;-57
2023/12/11 01:52:26;;;;;;;4.90;1.85;;;;;;;;;;5097838;29;20281;-57
2023/12/11 01:54:57;;;;;;;4.93;2.10;;;;;;;;;;5109256;29;20058;-57
2023/12/11 01:57:29;;;;;;;4.37;1.93;;;;;;;;;;5120398;28;20047;-59
2023/12/11 02:00:00;;;;;;;2.53;1.50;;;;;;;;;;5138299;28;20047;-57
2023/12/11 02:02:32;;;;;;;5.53;2.03;;;;;;;;;;5122677;29;20050;-59
2023/12/11 02:05:03;;;;;;;;;;;;;;;;;;5139496;28;20043;-58
2023/12/11 02:07:34;;;;;;;3.53;1.70;;;;;;;;;;5124784;29;20336;-59
2023/12/11 02:10:06;;;;;;;3.40;1.60;;;;;;;;;;5120301;29;20149;-57
2023/12/11 02:12:39;;;;;;;3.33;1.70;;;;;;;;;;5110773;29;20054;-59
2023/12/11 02:15:11;;;;;;;2.22;1.67;;;;;;;;;;5118968;29;20066;-60
2023/12/11 02:17:43;;;;;;;;;;;;;;;;;;5109564;29;20379;-60
2023/12/11 02:20:14;;;;;;;4.80;1.85;;;;;;;;;;5124292;29;19925;-61
2023/12/11 02:22:45;;;;;;;4.63;2.13;;;;;;;;;;5108874;29;20049;-60
2023/12/11 02:25:16;;;;;;;4.53;1.80;;;;;;;;;;5093207;29;20054;-61
2023/12/11 02:27:47;;;;;;;5.68;2.20;;;;;;;;;;5132694;28;20126;-61
2023/12/11 02:30:18;;;;;;;4.03;2.42;;;;;;;;;;5122477;29;20125;-57
2023/12/11 02:32:52;;;;;;;3.65;1.98;;;;;;;;;;5120934;29;20603;-57
2023/12/11 02:35:23;;;;;;;5.10;2.03;;;;;;;;;;5120864;29;20051;-57
2023/12/11 02:37:54;;;;;;;5.13;2.00;;;;;;;;;;5124805;29;20451;-58
2023/12/11 02:40:25;;;;;;;3.22;1.98;;;;;;;;;;5122257;29;20053;-58
2023/12/11 02:42:56;;;;;;;2.80;1.58;;;;;;;;;;5139982;28;20047;-57
2023/12/11 02:45:27;;;;;;;7.17;1.93;;;;;;;;;;5123066;28;20039;-58
2023/12/11 02:48:02;;;;;;;3.30;1.63;;;;;;;;;;5124516;29;20047;-57
2023/12/11 02:50:33;;;;;;;4.32;1.67;;;;;;;;;;5108436;29;20387;-59
2023/12/11 02:53:05;;;;;;;4.22;1.80;;;;;;;;;;5120125;29;20031;-58
2023/12/11 02:55:36;;;;;;;5.93;1.88;;;;;;;;;;5102973;29;20494;-59
2023/12/11 02:58:07;;;;;;;1.80;1.40;;;;;;;;;;5088835;29;20127;-57
2023/12/11 03:00:38;;;;;;;2.80;1.93;;;;;;;;;;5148850;28;20053;-59
2023/12/11 03:03:09;;;;;;;1.77;1.38;;;;;;;;;;5124300;29;20398;-58
2023/12/11 03:05:41;;;;;;;2.50;1.80;;;;;;;;;;5108827;29;20052;-58
2023/12/11 03:08:12;;;;;;;3.53;1.75;;;;;;;;;;5133645;28;20031;-58
2023/12/11 03:10:43;;;;;;;5.88;2.00;;;;;;;;;;5123712;29;20040;-58
2023/12/11 03:13:14;;;;;;;2.60;1.83;;;;;;;;;;5124043;29;20379;-58
2023/12/11 03:15:45;;;;;;;4.85;1.33;;;;;;;;;;5124639;28;20050;-58
2023/12/11 03:18:16;;;;;;;2.42;1.60;;;;;;;;;;5123288;29;20190;-58
2023/12/11 03:20:48;;;;;;;2.45;1.92;;;;;;;;;;5123501;29;20039;-58
2023/12/11 03:23:19;;;;;;;6.35;1.83;;;;;;;;;;5123141;28;20057;-58
2023/12/11 03:25:50;;;;;;;6.28;1.92;;;;;;;;;;5143020;28;20042;-57
2023/12/11 03:28:23;;;;;;;5.53;1.70;;;;;;;;;;5107396;29;20035;-57
2023/12/11 03:30:54;;;;;;;7.70;2.25;;;;;;;;;;5106872;29;20035;-58
2023/12/11 03:33:26;;;;;;;3.97;1.70;;;;;;;;;;5123226;29;20418;-58
2023/12/11 03:35:57;;;;;;;2.90;1.57;;;;;;;;;;5153546;28;20397;-59
2023/12/11 03:38:28;;;;;;;4.70;2.15;;;;;;;;;;5134909;28;20114;-59
2023/12/11 03:40:59;;;;;;;4.17;1.60;;;;;;;;;;5116138;29;20035;-59
2023/12/11 03:43:31;;;;;;;2.78;1.88;;;;;;;;;;5123449;29;20438;-59
2023/12/11 03:46:03;;;;;;;;;;;;;;;;;;5107621;29;20095;-59
2023/12/11 03:48:34;;;;;;;4.20;1.90;;;;;;;;;;5122573;29;19925;-59
2023/12/11 03:51:05;;;;;;;3.42;1.50;;;;;;;;;;5123253;29;20039;-59
2023/12/11 03:53:36;;;;;;;5.47;1.65;;;;;;;;;;5106903;29;20082;-59
2023/12/11 03:56:08;;;;;;;4.20;1.58;;;;;;;;;;5106698;29;20106;-62
2023/12/11 03:58:39;;;;;;;6.25;1.80;;;;;;;;;;5106541;29;20075;-63
2023/12/11 04:01:10;;;;;;;4.60;1.83;;;;;;;;;;5128085;28;20046;-62
2023/12/11 04:03:41;;;;;;;2.92;1.40;;;;;;;;;;5122688;29;20039;-62
2023/12/11 04:06:12;;;;;;;3.30;1.30;;;;;;;;;;5117783;29;20115;-63
2023/12/11 04:08:44;;;;;;;3.60;1.50;;;;;;;;;;5131280;28;20110;-63
2023/12/11 04:11:15;;;;;;;2.20;1.27;;;;;;;;;;5122466;28;20043;-62
2023/12/11 04:13:46;;;;;;;4.03;1.70;;;;;;;;;;5122604;29;20054;-63
2023/12/11 04:16:17;;;;;;;3.97;1.63;;;;;;;;;;5106756;29;20379;-63
2023/12/11 04:18:48;;;;;;;3.35;1.20;;;;;;;;;;5120947;29;20296;-62
2023/12/11 04:21:19;;;;;;;3.67;1.77;;;;;;;;;;5086664;29;20050;-62
2023/12/11 04:23:51;;;;;;;1.90;0.98;;;;;;;;;;5086734;29;20047;-63
2023/12/11 04:26:22;;;;;;;3.78;1.20;;;;;;;;;;5086542;29;20043;-64
2023/12/11 04:28:53;;;;;;;1.80;1.10;;;;;;;;;;5103243;29;20118;-64
2023/12/11 04:31:24;;;;;;;1.20;0.80;;;;;;;;;;5113471;29;20036;-63
2023/12/11 04:33:55;;;;;;;2.00;1.13;;;;;;;;;;5122121;28;20546;-63
2023/12/11 04:36:26;;;;;;;1.75;1.00;;;;;;;;;;5106240;29;20285;-63
2023/12/11 04:38:58;;;;;;;2.40;0.95;;;;;;;;;;5105331;29;20059;-60
2023/12/11 04:41:29;;;;;;;2.67;1.20;;;;;;;;;;5088694;29;20075;-59
2023/12/11 04:44:00;;;;;;;3.30;0.90;;;;;;;;;;5121811;29;20094;-57
2023/12/11 04:46:31;;;;;;;1.98;0.70;;;;;;;;;;5094462;29;20071;-60
2023/12/11 04:49:02;;;;;;;3.08;0.80;;;;;;;;;;5103133;29;20419;-60
2023/12/11 04:51:33;;;;;;;2.45;1.65;;;;;;;;;;5121411;29;20063;-60
2023/12/11 04:54:05;;;;;;;1.50;0.90;;;;;;;;;;5122063;29;20206;-60
2023/12/11 04:56:36;;;;;;;1.77;0.60;;;;;;;;;;5121735;29;20054;-58
2023/12/11 04:59:07;;;;;;;1.47;0.93;;;;;;;;;;5094200;29;20047;-59
2023/12/11 05:01:38;;;;;;;6.97;1.98;;;;;;;;;;5114169;29;20477;-59
2023/12/11 05:04:09;;;;;;;3.45;1.50;;;;;;;;;;5119412;29;20055;-59
2023/12/11 05:06:41;;;;;;;2.15;0.93;;;;;;;;;;5120327;29;20031;-58
2023/12/11 05:09:12;;;;;;;1.87;0.80;;;;;;;;;;5136506;28;20051;-58
2023/12/11 05:11:43;;;;;;;2.08;0.95;;;;;;;;;;5136276;28;20043;-57
2023/12/11 05:14:14;;;;;;;2.30;1.15;;;;;;;;;;5115518;29;20039;-57
2023/12/11 05:16:45;;;;;;;5.20;1.20;;;;;;;;;;5109480;29;20101;-57
2023/12/11 05:19:16;;;;;;;2.22;0.90;;;;;;;;;;5120745;29;20055;-58
2023/12/11 05:21:47;;;;;;;2.20;0.85;;;;;;;;;;5105326;29;20049;-59
2023/12/11 05:24:19;;;;;;;2.50;1.05;;;;;;;;;;5123688;28;20106;-59
2023/12/11 05:26:50;;;;;;;2.17;1.42;;;;;;;;;;5109696;29;20057;-59
2023/12/11 05:29:21;;;;;;;9.80;1.15;;;;;;;;;;5125349;29;20059;-59
2023/12/11 05:31:52;;;;;;;2.05;0.88;;;;;;;;;;5125371;29;20045;-58
2023/12/11 05:34:23;;;;;;;2.78;1.15;;;;;;;;;;5125519;29;20047;-59
2023/12/11 05:36:54;;;;;;;1.75;1.00;;;;;;;;;;5124032;29;20406;-59
2023/12/11 05:39:25;;;;;;;5.55;1.42;;;;;;;;;;5125698;29;20051;-64
2023/12/11 05:41:56;;;;;;;2.88;1.17;;;;;;;;;;5109488;29;20062;-64
2023/12/11 05:44:28;;;;;;;3.80;1.23;;;;;;;;;;5122035;29;20063;-62
2023/12/11 05:46:59;;;;;;;3.95;1.10;;;;;;;;;;5109444;29;20043;-63
2023/12/11 05:49:30;;;;;;;2.92;1.17;;;;;;;;;;5110076;29;20035;-65
2023/12/11 05:52:02;;;;;;;2.25;0.98;;;;;;;;;;5143262;28;20043;-63
2023/12/11 05:54:33;;;;;;;1.23;0.93;;;;;;;;;;5128514;28;20130;-63
2023/12/11 05:57:04;;;;;;;2.90;1.00;;;;;;;;;;5125391;28;20105;-63
2023/12/11 05:59:36;;;;;;;4.00;1.15;;;;;;;;;;5124436;28;20130;-61
2023/12/11 06:02:07;;;;;;;2.35;1.00;;;;;;;;;;5140600;28;20040;-63
2023/12/11 06:04:38;;;;;;;3.20;0.93;;;;;;;;;;5124723;28;20506;-62
2023/12/11 06:07:09;;;;;;;2.05;0.98;;;;;;;;;;5109513;28;20042;-63
2023/12/11 06:09:40;;;;;;;1.80;1.02;;;;;;;;;;5148285;28;20047;-64
2023/12/11 06:12:11;;;;;;;1.90;1.17;;;;;;;;;;5124379;28;20482;-63
2023/12/11 06:14:43;;;;;;;1.65;1.00;;;;;;;;;;5135012;28;20125;-63
2023/12/11 06:17:14;;;;;;;3.63;1.43;;;;;;;;;;5126139;28;20047;-62
2023/12/11 06:19:45;;;;;;;2.08;1.08;;;;;;;;;;5108591;29;20050;-61
2023/12/11 06:22:16;;;;;;;4.88;1.10;;;;;;;;;;5123826;28;20122;-62
2023/12/11 06:24:47;;;;;;;1.98;1.15;;;;;;;;;;5123861;28;20047;-60
2023/12/11 06:27:18;;;;;;;1.97;1.20;;;;;;;;;;5110409;28;20467;-62
2023/12/11 06:29:50;;;;;;;1.75;1.25;;;;;;;;;;5124049;28;20081;-61
2023/12/11 06:32:21;;;;;;;3.22;1.27;;;;;;;;;;5123788;28;20051;-61
2023/12/11 06:34:52;;;;;;;2.47;0.88;;;;;;;;;;5123817;28;20043;-62
2023/12/11 06:37:23;;;;;;;1.33;0.80;;;;;;;;;;5108017;28;20047;-65
2023/12/11 06:39:54;;;;;;;3.33;1.17;;;;;;;;;;5108097;29;20472;-61
2023/12/11 06:42:26;;;;;;;2.38;1.48;;;;;;;;;;5107496;29;20039;-62
2023/12/11 06:44:58;;;;;;;1.58;1.02;;;;;;;;;;5123731;28;20581;-65
2023/12/11 06:47:29;;;;;;;3.25;1.10;;;;;;;;;;5123895;28;20400;-61
2023/12/11 06:50:00;;;;;;;3.80;1.23;;;;;;;;;;5123625;28;20067;-64
2023/12/11 06:52:31;;;;;;;3.00;1.00;;;;;;;;;;5107820;29;20394;-63
2023/12/11 06:55:02;;;;;;;1.92;1.15;;;;;;;;;;5107401;28;20126;-60
2023/12/11 06:57:33;;;;;;;2.80;1.17;;;;;;;;;;5123705;28;20039;-60
2023/12/11 07:00:05;;;;;;;2.77;1.00;;;;;;;;;;5122940;28;20051;-60
2023/12/11 07:02:36;;;;;;;3.42;1.50;;;;;;;;;;5139000;28;20050;-60
2023/12/11 07:05:08;;;;;;;1.27;0.90;;;;;;;;;;5106723;28;20043;-60
2023/12/11 07:07:39;;;;;;;2.40;1.17;;;;;;;;;;5123061;28;20082;-60
2023/12/11 07:10:11;;;;;;;1.95;1.00;;;;;;;;;;5138953;28;20408;-60
2023/12/11 07:12:45;;;;;;;3.72;1.33;;;;;;;;;;5122905;28;20051;-60
2023/12/11 07:15:17;;;;;;;3.05;1.23;;;;;;;;;;5123060;28;20519;-59
2023/12/11 07:17:48;;;;;;;2.78;1.45;;;;;;;;;;5113447;28;20054;-58
2023/12/11 07:20:19;;;;;;;4.57;1.33;;;;;;;;;;5106770;28;20043;-58
2023/12/11 07:22:50;;;;;;;3.90;1.63;;;;;;;;;;5122873;28;20055;-59
2023/12/11 07:25:21;;;;;;;4.32;1.63;;;;;;;;;;5122806;28;20402;-59
2023/12/11 07:27:53;;;;;;;2.90;1.42;;;;;;;;;;5123248;28;20049;-61
2023/12/11 07:30:24;;;;;;;3.55;1.48;;;;;;;;;;5127369;28;20039;-60
2023/12/11 07:32:55;;;;;;;2.03;1.58;;;;;;;;;;5122728;28;20491;-60
2023/12/11 07:35:26;;;;;;;4.60;1.40;;;;;;;;;;5122414;28;20050;-60
2023/12/11 07:37:57;;;;;;;2.45;1.55;;;;;;;;;;5122508;28;20051;-60
2023/12/11 07:40:29;;;;;;;2.33;1.65;;;;;;;;;;5105950;28;20051;-60
2023/12/11 07:43:00;;;;;;;4.10;1.55;;;;;;;;;;5122363;28;20055;-61
2023/12/11 07:45:31;;;;;;;3.03;1.50;;;;;;;;;;5133570;28;20347;-61
2023/12/11 07:48:02;;;;;;;1.20;1.10;;;;;;;;;;5121867;28;20100;-61
2023/12/11 07:50:33;;;;;;;4.38;1.63;;;;;;;;;;5106771;29;20126;-60
2023/12/11 07:53:04;;;;;;;2.85;1.40;;;;;;;;;;5122717;28;20074;-61
2023/12/11 07:55:35;;;;;;;3.10;1.42;;;;;;;;;;5114319;28;20066;-60
2023/12/11 07:58:07;;;;;;;4.57;1.40;;;;;;;;;;5124681;28;20062;-60
2023/12/11 08:00:38;;;;;;;3.28;1.50;;;;;;;;;;5133960;28;20050;-60
2023/12/11 08:03:09;;;;;;;3.95;1.88;;;;;;;;;;5119366;28;20075;-60
2023/12/11 08:05:40;;;;;;;1.77;1.00;;;;;;;;;;5111307;28;20058;-60
2023/12/11 08:08:12;;;;;;;4.17;1.43;;;;;;;;;;5105745;29;20505;-61
2023/12/11 08:10:45;;;;;;;3.90;1.67;;;;;;;;;;5120968;28;20039;-60
2023/12/11 08:13:16;;;;;;;3.30;1.80;;;;;;;;;;5120635;28;20078;-63
2023/12/11 08:15:47;;;;;;;2.72;1.45;;;;;;;;;;5121258;28;20035;-60
2023/12/11 08:18:18;;;;;;;3.97;1.63;;;;;;;;;;5105264;29;20071;-59
2023/12/11 08:20:50;;;;;;;2.78;1.65;;;;;;;;;;5104829;28;20054;-60
2023/12/11 08:23:21;;;;;;;4.32;1.80;;;;;;;;;;5105384;28;20591;-60
2023/12/11 08:25:52;;;;;;;7.72;2.00;;;;;;;;;;5120933;28;20066;-59
2023/12/11 08:28:24;;;;;;;8.57;1.90;;;;;;;;;;5105160;29;20067;-60
2023/12/11 08:30:55;;;;;;;5.57;1.70;;;;;;;;;;5105079;29;20043;-60
2023/12/11 08:33:26;;;;;;;5.88;2.83;;;;;;;;;;5121593;28;20051;-62
2023/12/11 08:35:57;;;;;;;3.28;1.70;;;;;;;;;;5105947;29;20043;-60
2023/12/11 08:38:28;;;;;;;2.03;1.35;;;;;;;;;;5105513;29;20135;-60
2023/12/11 08:41:00;;;;;;;5.33;1.97;;;;;;;;;;5121584;28;20047;-60
2023/12/11 08:43:31;;;;;;;3.22;1.63;;;;;;;;;;5121155;28;20050;-61
2023/12/11 08:46:02;;;;;;;3.88;1.52;;;;;;;;;;5121596;28;20039;-61
2023/12/11 08:48:33;;;;;;;3.75;1.75;;;;;;;;;;5105078;28;20047;-62
2023/12/11 08:51:05;;;;;;;2.80;1.30;;;;;;;;;;5121506;28;20507;-61
2023/12/11 08:53:36;;;;;;;3.97;1.27;;;;;;;;;;5105424;28;20098;-58
2023/12/11 08:56:08;;;;;;;1.53;1.20;;;;;;;;;;5121498;28;20073;-59
2023/12/11 08:58:39;;;;;;;5.10;1.67;;;;;;;;;;5120366;28;20064;-59
2023/12/11 09:01:10;;;;;;;6.37;1.40;;;;;;;;;;5121720;28;20379;-59
2023/12/11 09:03:42;;;;;;;4.28;2.40;;;;;;;;;;5104823;29;20549;-58
2023/12/11 09:06:13;;;;;;;9.10;2.20;;;;;;;;;;5104828;28;20407;-58
2023/12/11 09:08:45;;;;;;;4.07;1.95;;;;;;;;;;5120875;28;20090;-56
2023/12/11 09:11:16;;;;;;;4.90;2.05;;;;;;;;;;5121393;28;20527;-56
2023/12/11 09:13:47;;;;;;;3.45;1.42;;;;;;;;;;5126480;28;20486;-56
2023/12/11 09:16:18;;;;;;;3.85;1.45;;;;;;;;;;5119908;28;20043;-57
2023/12/11 09:18:49;;;;;;;3.35;1.20;;;;;;;;;;5144502;28;20039;-56
2023/12/11 09:21:22;;;;;;;2.83;0.98;;;;;;;;;;5121059;28;20039;-56
2023/12/11 09:23:53;;;;;;;3.13;1.50;;;;;;;;;;5127469;28;20086;-56
2023/12/11 09:26:24;;;;;;;4.50;1.77;;;;;;;;;;5121249;28;20047;-56
2023/12/11 09:28:56;;;;;;;4.37;1.70;;;;;;;;;;5121399;29;20039;-56
2023/12/11 09:31:27;;;;;;;2.90;1.20;;;;;;;;;;5120959;29;20046;-59
2023/12/11 09:33:58;;;;;;;8.90;1.83;;;;;;;;;;5107461;28;20094;-57
2023/12/11 09:36:29;;;;;;;3.13;1.55;;;;;;;;;;5122207;28;20370;-58
2023/12/11 09:39:00;;;;;;;2.42;1.20;;;;;;;;;;5105606;29;20039;-58
2023/12/11 09:41:33;;;;;;;3.33;1.33;;;;;;;;;;5110054;29;20112;-58
2023/12/11 09:44:04;;;;;;;3.92;1.50;;;;;;;;;;5121280;28;20051;-58
2023/12/11 09:46:42;;;;;;;3.60;1.60;;;;;;;;;;5105901;29;20047;-57
2023/12/11 09:49:13;;;;;;;3.38;1.90;;;;;;;;;;5105726;29;20545;-57
2023/12/11 09:51:44;;;;;;;5.95;2.30;;;;;;;;;;5121536;29;20501;-57
2023/12/11 09:54:15;;;;;;;4.10;2.28;;;;;;;;;;5121329;28;20043;-57
2023/12/11 09:56:47;;;;;;;3.07;1.57;;;;;;;;;;5131442;28;20085;-57
2023/12/11 09:59:18;;;;;;;7.05;2.13;;;;;;;;;;5126392;28;20047;-58
2023/12/11 10:01:50;;;;;;;4.80;2.50;;;;;;;;;;5121343;29;20052;-58
2023/12/11 10:04:21;;;;;;;8.88;2.85;;;;;;;;;;5121677;28;20297;-57
2023/12/11 10:06:52;;;;;;;6.67;2.30;;;;;;;;;;5121650;28;20459;-57
2023/12/11 10:09:27;;;;;;;3.45;2.00;;;;;;;;;;5106018;29;20070;-58
2023/12/11 10:11:59;;;;;;;4.07;1.58;;;;;;;;;;5130469;28;20483;-58
2023/12/11 10:14:31;;;;;;;4.07;1.98;;;;;;;;;;5125124;28;20083;-58
2023/12/11 10:17:15;;;;;;;7.60;3.00;;;;;;;;;;5125298;28;20122;-58
2023/12/11 10:19:46;;;;;;;5.50;3.38;;;;;;;;;;5124622;28;20515;-58
2023/12/11 10:22:37;;;;;;;10.18;4.93;;;;;;;;;;5124876;28;20055;-58
2023/12/11 10:25:08;;;;;;;10.13;6.15;;;;;;;;;;5124999;29;20648;-59
2023/12/11 10:27:39;;;;;;;9.07;5.68;;;;;;;;;;5108759;28;20047;-58
2023/12/11 10:30:12;;;;;;;11.70;6.00;;;;;;;;;;5108553;29;20046;-58
2023/12/11 10:32:43;;;;;;;9.05;4.75;;;;;;;;;;5124289;28;20513;-58
2023/12/11 10:35:23;;;;;;;11.02;5.93;;;;;;;;;;5124464;28;20095;-58
2023/12/11 10:38:01;;;;;;;10.35;4.60;;;;;;;;;;5140479;28;20079;-58
2023/12/11 10:40:37;;;;;;;7.63;3.83;;;;;;;;;;5108102;29;20039;-58
2023/12/11 10:43:08;;;;;;;8.90;4.15;;;;;;;;;;5124564;29;20122;-58
2023/12/11 10:45:40;;;;;;;7.25;3.92;;;;;;;;;;5124052;29;20046;-58
2023/12/11 10:48:11;;;;;;;5.90;2.90;;;;;;;;;;5108287;29;20042;-58
2023/12/11 10:50:42;;;;;;;4.40;2.65;;;;;;;;;;5129268;28;20035;-58
2023/12/11 10:53:14;;;;;;;4.65;2.92;;;;;;;;;;5108148;29;20055;-58
2023/12/11 10:55:47;;;;;;;3.53;2.70;;;;;;;;;;5124377;28;20546;-59
2023/12/11 10:58:18;;;;;;;5.68;2.33;;;;;;;;;;5124048;28;20047;-58
2023/12/11 11:00:49;;;;;;;7.38;2.90;;;;;;;;;;5140424;28;20125;-57
2023/12/11 11:03:22;;;;;;;6.35;3.95;;;;;;;;;;5108581;28;20041;-58
2023/12/11 11:05:53;;;;;;;;;;;;;;;;;;5124210;29;20578;-58
2023/12/11 11:08:37;;;;;;;6.17;3.20;;;;;;;;;;5107692;29;19930;-57
2023/12/11 11:11:31;;;;;;;8.65;4.05;;;;;;;;;;5124375;28;20043;-58
2023/12/11 11:14:09;;;;;;;8.32;4.25;;;;;;;;;;5124361;28;20050;-58
2023/12/11 11:16:56;;;;;;;8.38;3.75;;;;;;;;;;5123685;28;20521;-58
2023/12/11 11:19:29;;;;;;;6.22;3.08;;;;;;;;;;5107793;29;20701;-58
2023/12/11 11:22:00;;;;;;;6.43;2.60;;;;;;;;;;5122999;28;20081;-59
2023/12/11 11:24:34;;;;;;;4.13;2.53;;;;;;;;;;5112172;28;20122;-59
2023/12/11 11:27:25;;;;;;;4.38;2.28;;;;;;;;;;5129894;28;20273;-58
2023/12/11 11:29:56;;;;;;;3.90;2.30;;;;;;;;;;5123341;29;20050;-57
2023/12/11 11:32:47;;;;;;;4.67;2.60;;;;;;;;;;5123421;28;20036;-59
2023/12/11 11:35:37;;;;;;;4.47;2.58;;;;;;;;;;5123550;28;20047;-59
2023/12/11 11:38:09;;;;;;;6.82;2.80;;;;;;;;;;5128294;28;20043;-58
2023/12/11 11:40:40;;;;;;;4.07;2.67;;;;;;;;;;5107708;29;20608;-60
2023/12/11 11:43:12;;;;;;;4.72;2.97;;;;;;;;;;5107074;28;20147;-60
2023/12/11 11:45:43;;;;;;;4.93;2.75;;;;;;;;;;5122851;29;20043;-58
2023/12/11 11:48:14;;;;;;;4.03;1.95;;;;;;;;;;5107138;29;20035;-58
2023/12/11 11:50:53;;;;;;;7.43;2.77;;;;;;;;;;5122228;28;20486;-59
2023/12/11 11:53:25;;;;;;;5.15;2.30;;;;;;;;;;5122676;28;20039;-59
2023/12/11 11:56:01;;;;;;;6.78;2.58;;;;;;;;;;5106333;29;20074;-59
2023/12/11 11:58:32;;;;;;;6.60;2.60;;;;;;;;;;5122513;28;20134;-59
2023/12/11 12:01:04;;;;;;;6.33;3.60;;;;;;;;;;5123020;28;20095;-59
2023/12/11 12:03:35;;;;;;;;;;;;;;;;;;5106772;29;20051;-59
2023/12/11 12:06:06;;;;;;;3.10;2.08;;;;;;;;;;5106403;29;20005;-59
2023/12/11 12:08:42;;;;;;;3.63;2.22;;;;;;;;;;5122209;28;20404;-59
2023/12/11 12:11:15;;;;;;;4.57;2.33;;;;;;;;;;5121928;28;20051;-58
2023/12/11 12:13:46;;;;;;;5.90;2.50;;;;;;;;;;5122364;29;20522;-58
2023/12/11 12:16:30;;;;;;;4.73;2.30;;;;;;;;;;5122227;28;20194;-58
2023/12/11 12:19:02;;;;;;;4.20;2.20;;;;;;;;;;5122418;28;20058;-58
2023/12/11 12:21:46;;;;;;;4.40;2.40;;;;;;;;;;5122183;28;20121;-58
2023/12/11 12:24:17;;;;;;;8.70;2.22;;;;;;;;;;5121821;28;20598;-59
2023/12/11 12:26:52;;;;;;;5.97;2.90;;;;;;;;;;5106418;29;20043;-59
2023/12/11 12:29:23;;;;;;;8.07;2.97;;;;;;;;;;5105952;28;20075;-58
2023/12/11 12:31:54;;;;;;;4.28;2.63;;;;;;;;;;5122190;28;20486;-59
2023/12/11 12:34:26;;;;;;;4.53;2.20;;;;;;;;;;5122036;28;20047;-58
2023/12/11 12:36:57;;;;;;;;;;;;;;;;;;5106563;29;20070;-58
2023/12/11 12:39:29;;;;;;;5.90;2.63;;;;;;;;;;5122299;28;19973;-56
2023/12/11 12:42:00;;;;;;;3.67;2.35;;;;;;;;;;5121498;28;20050;-56
2023/12/11 12:44:38;;;;;;;7.50;2.72;;;;;;;;;;5121694;29;20054;-56
2023/12/11 12:47:10;;;;;;;5.03;2.65;;;;;;;;;;5121495;28;20067;-56
2023/12/11 12:49:45;;;;;;;4.65;2.75;;;;;;;;;;5105942;29;20106;-56
2023/12/11 12:52:23;;;;;;;5.03;2.75;;;;;;;;;;5121912;28;20058;-56
2023/12/11 12:54:55;;;;;;;5.97;3.33;;;;;;;;;;5122242;28;20051;-56
2023/12/11 12:57:26;;;;;;;6.18;2.92;;;;;;;;;;5122109;28;20066;-59
2023/12/11 12:59:57;;;;;;;6.00;3.40;;;;;;;;;;5132014;28;20150;-59
2023/12/11 13:02:28;;;;;;;4.83;3.30;;;;;;;;;;5121518;28;20043;-59
2023/12/11 13:04:59;;;;;;;5.82;2.35;;;;;;;;;;5106222;28;20051;-59
2023/12/11 13:07:31;;;;;;;5.70;3.50;;;;;;;;;;5105141;29;20043;-59
2023/12/11 13:10:10;;;;;;;5.90;3.23;;;;;;;;;;5139080;28;20035;-59
2023/12/11 13:12:41;;;;;;;6.63;3.47;;;;;;;;;;5105028;29;20042;-59
2023/12/11 13:15:12;;;;;;;8.32;3.83;;;;;;;;;;5125644;28;20035;-59
2023/12/11 13:17:50;;;;;;;6.57;3.88;;;;;;;;;;5121487;28;20050;-59
2023/12/11 13:20:21;;;;;;;5.78;3.78;;;;;;;;;;5121195;28;20074;-60
2023/12/11 13:22:52;;;;;;;6.17;3.60;;;;;;;;;;5121154;28;20070;-60
2023/12/11 13:25:23;;;;;;;6.25;3.65;;;;;;;;;;5120569;28;20297;-59
2023/12/11 13:27:55;;;;;;;5.27;3.33;;;;;;;;;;5120696;28;20101;-59
2023/12/11 13:30:26;;;;;;;6.57;4.13;;;;;;;;;;5104914;29;20075;-59
2023/12/11 13:32:58;;;;;;;6.07;3.83;;;;;;;;;;5120935;28;20046;-59
2023/12/11 13:35:29;;;;;;;6.15;4.10;;;;;;;;;;5120737;28;20043;-60
2023/12/11 13:38:00;;;;;;;6.43;5.38;;;;;;;;;;5105034;29;20046;-59
2023/12/11 13:40:31;;;;;;;6.43;5.30;;;;;;;;;;5120775;28;20051;-60
2023/12/11 13:43:03;;;;;;;8.90;5.10;;;;;;;;;;5120909;28;20047;-60
2023/12/11 13:45:35;;;;;;;6.25;4.85;;;;;;;;;;5122774;28;20542;-60
2023/12/11 13:48:06;;;;;;;13.95;6.40;;;;;;;;;;5124659;28;20083;-59
2023/12/11 13:50:37;;;;;;;8.33;5.67;;;;;;;;;;5124978;28;20175;-61
2023/12/11 13:53:08;;;;;;;7.23;4.57;;;;;;;;;;5124843;28;20083;-59
2023/12/11 13:55:39;;;;;;;7.23;4.27;;;;;;;;;;5124946;28;20051;-64
2023/12/11 13:58:10;;;;;;;5.43;3.10;;;;;;;;;;5109231;28;20160;-61
2023/12/11 14:00:42;;;;;;;12.55;4.25;;;;;;;;;;5125335;28;20474;-59
2023/12/11 14:03:13;;;;;;;6.80;3.63;;;;;;;;;;5108915;29;20126;-58
2023/12/11 14:05:44;;;;;;;8.07;4.22;;;;;;;;;;5124789;29;20462;-59
2023/12/11 14:08:16;;;;;;;4.83;3.50;;;;;;;;;;5124758;28;20043;-59
2023/12/11 14:10:48;;;;;;;5.55;4.00;;;;;;;;;;5124998;29;20054;-59
2023/12/11 14:13:22;;;;;;;5.18;3.80;;;;;;;;;;5108528;29;20086;-61
2023/12/11 14:15:53;;;;;;;7.75;4.50;;;;;;;;;;5124635;29;20043;-60
2023/12/11 14:18:25;;;;;;;6.63;4.32;;;;;;;;;;5108386;29;20054;-60
2023/12/11 14:20:56;;;;;;;7.18;4.00;;;;;;;;;;5122778;28;20111;-60
2023/12/11 14:23:27;;;;;;;5.03;3.90;;;;;;;;;;5114456;29;20054;-60
2023/12/11 14:25:58;;;;;;;4.70;3.93;;;;;;;;;;5099816;29;20134;-61
2023/12/11 14:28:29;;;;;;;7.57;3.77;;;;;;;;;;5143490;28;20497;-61
2023/12/11 14:31:01;;;;;;;6.50;4.20;;;;;;;;;;5111522;29;20090;-63
2023/12/11 14:33:33;;;;;;;6.18;3.83;;;;;;;;;;5123480;29;20039;-61
2023/12/11 14:36:04;;;;;;;5.77;4.20;;;;;;;;;;5124326;28;20125;-61
2023/12/11 14:38:35;;;;;;;5.32;3.85;;;;;;;;;;5102530;28;20047;-60
2023/12/11 14:41:06;;;;;;;8.60;4.13;;;;;;;;;;5125680;28;20118;-60
2023/12/11 14:43:38;;;;;;;6.68;4.40;;;;;;;;;;5101078;29;20055;-59
2023/12/11 14:46:09;;;;;;;6.65;4.05;;;;;;;;;;5119767;28;20574;-60
2023/12/11 14:48:43;;;;;;;6.80;4.32;;;;;;;;;;5101675;29;20045;-60
2023/12/11 14:51:14;;;;;;;7.07;4.47;;;;;;;;;;5146784;28;20544;-59
2023/12/11 14:53:45;;;;;;;8.47;4.57;;;;;;;;;;5116627;28;20389;-59
2023/12/11 14:56:16;;;;;;;6.30;4.25;;;;;;;;;;5099047;29;20047;-60
2023/12/11 14:58:47;;;;;;;6.83;4.53;;;;;;;;;;5109147;29;20094;-59
2023/12/11 15:01:18;;;;;;;7.90;5.13;;;;;;;;;;5099694;29;20039;-59
2023/12/11 15:03:50;;;;;;;8.63;5.20;;;;;;;;;;5100863;28;20115;-59
2023/12/11 15:06:22;;;;;;;9.75;5.45;;;;;;;;;;5112569;28;20043;-59
2023/12/11 15:08:53;;;;;;;9.68;6.38;;;;;;;;;;5100928;28;20498;-59
2023/12/11 15:11:24;;;;;;;10.20;5.78;;;;;;;;;;5147830;28;20145;-59
2023/12/11 15:13:55;;;;;;;7.82;6.28;;;;;;;;;;5116432;28;20479;-60